KCAE/CAE METAR and TAF weather

Enter ICAO airport designator
Station Type Date Time Source
KCAE METAR 2021/10/20 05:56 UTC NOAA

KCAE 200556Z AUTO 00000KT 10SM SKC 11/09 A3023


Station Type Date Time Source
KCAE Decoded METAR 2021/10/20 05:56 UTC NOAA

COLUMBIA METROPOLITAN AIRPORT , SC, United States (KCAE) 33-57N 081-07W 73M
Oct 20, 2021 - 01:56 AM EDT / 2021.10.20 0556 UTC
Wind: Calm:0
Visibility: 10 mile(s):0
Sky conditions: clear
Temperature: 51 F (11 C)
Dew Point: 48 F (9 C)
Relative Humidity: 87%
Pressure (altimeter): 30.23 in. Hg (1023 hPa)
ob: KCAE 200556Z AUTO 00000KT 10SM SKC 11/09 A3023
cycle: 6

Station Type Date Time Source
KCAE TAF 2021/10/20 06:39 UTC NOAA

TAF KCAE 200535Z 2006/2106 VRB03KT P6SM FEW250
FM201600 25008KT P6SM SKC
FM210000 23003KT P6SM FEW200

Example: see airport list